Time;durP1;ratioP1;P1;durP2;ratioP2;P2;SDS_P1;SDS_P2;PMS_P1;PMS_P2;Temp;Humidity;BMP_temperature;BMP_pressure;BME280_temperature;BME280_humidity;BME280_pressure;Samples;Min_cycle;Max_cycle;Signal;HPM_P1;HPM_P2
2022/05/17 00:01:22;;;;;;;11.43;4.60;;;;;;;24.18;38.50;98661.06;4499786;31;20089;-85
2022/05/17 00:03:48;;;;;;;9.13;4.12;;;;;;;24.12;38.49;98659.91;4492629;31;20113;-86
2022/05/17 00:06:13;;;;;;;11.70;4.40;;;;;;;24.09;38.40;98660.28;4493882;31;20135;-85
2022/05/17 00:08:39;;;;;;;11.45;3.95;;;;;;;24.06;38.32;98658.75;4483712;31;20072;-86
2022/05/17 00:11:06;;;;;;;10.77;4.45;;;;;;;24.04;38.25;98651.87;4489006;31;20376;-86
2022/05/17 00:13:32;;;;;;;12.23;4.40;;;;;;;24.01;38.26;98642.31;4484497;32;20092;-85
2022/05/17 00:15:59;;;;;;;9.82;4.07;;;;;;;24.03;38.20;98645.66;4490068;31;20534;-85
2022/05/17 00:18:25;;;;;;;10.40;4.47;;;;;;;24.01;38.24;98644.13;4482148;31;20100;-84
2022/05/17 00:20:51;;;;;;;11.30;4.50;;;;;;;24.00;38.30;98643.31;4489966;31;20076;-85
2022/05/17 00:23:17;;;;;;;10.63;4.32;;;;;;;23.97;38.39;98635.59;4485103;31;20403;-85
2022/05/17 00:25:45;;;;;;;10.60;4.35;;;;;;;23.96;38.58;98635.78;4491744;31;20160;-85
2022/05/17 00:28:11;;;;;;;12.93;4.30;;;;;;;23.98;38.52;98631.06;4479891;32;20084;-85
2022/05/17 00:30:36;;;;;;;11.30;4.35;;;;;;;23.88;38.71;98633.94;4483369;31;20358;-84
2022/05/17 00:33:02;;;;;;;10.45;4.40;;;;;;;23.88;38.65;98637.47;4489127;31;20100;-85
2022/05/17 00:35:27;;;;;;;10.43;4.18;;;;;;;23.90;38.68;98631.91;4498757;31;20485;-84
2022/05/17 00:37:53;;;;;;;10.52;4.53;;;;;;;23.89;39.00;98627.53;4492877;31;20088;-84
2022/05/17 00:40:19;;;;;;;9.73;4.28;;;;;;;23.91;39.11;98622.81;4478723;32;20092;-85
2022/05/17 00:42:44;;;;;;;11.57;4.55;;;;;;;23.90;39.01;98623.84;4498487;31;20351;-85
2022/05/17 00:45:10;;;;;;;11.30;4.10;;;;;;;23.92;38.85;98621.81;4489320;31;20452;-84
2022/05/17 00:47:42;;;;;;;9.68;4.10;;;;;;;23.93;38.69;98621.66;4497729;31;20585;-84
2022/05/17 00:50:13;;;;;;;9.82;4.22;;;;;;;23.98;38.70;98621.13;4479906;31;20108;-85
2022/05/17 00:52:50;;;;;;;11.82;4.05;;;;;;;24.01;38.66;98619.91;4476711;32;20161;-84
2022/05/17 00:55:23;;;;;;;12.13;4.30;;;;;;;24.02;38.84;98621.63;4485132;31;20101;-85
2022/05/17 00:58:03;;;;;;;10.43;4.40;;;;;;;24.04;38.89;98623.09;4477930;31;20119;-86
2022/05/17 01:00:31;;;;;;;10.85;4.18;;;;;;;24.09;38.90;98618.06;4464725;32;20100;-86
2022/05/17 01:03:07;;;;;;;9.52;4.20;;;;;;;24.08;38.85;98602.06;4485131;31;20135;-85
2022/05/17 01:05:37;;;;;;;11.00;4.32;;;;;;;24.11;38.63;98604.44;4490436;31;20398;-86
2022/05/17 01:08:03;;;;;;;12.10;4.15;;;;;;;24.11;38.59;98599.03;4467441;32;20379;-86
2022/05/17 01:10:29;;;;;;;10.55;4.60;;;;;;;24.14;38.57;98604.94;4496232;31;20113;-86
2022/05/17 01:15:41;;;;;;;13.80;4.75;;;;;;;24.14;38.54;98596.84;4477448;32;20115;-86
2022/05/17 01:18:06;;;;;;;12.32;4.53;;;;;;;24.18;38.31;98596.47;4478845;31;20091;-83
2022/05/17 01:20:34;;;;;;;11.07;4.70;;;;;;;24.19;38.19;98601.69;4477162;32;20083;-84
2022/05/17 01:23:00;;;;;;;10.40;4.35;;;;;;;24.23;38.16;98602.19;4498821;31;20088;-83
2022/05/17 01:25:27;;;;;;;12.23;4.30;;;;;;;24.23;38.27;98594.09;4489809;31;20503;-84
2022/05/17 01:27:57;;;;;;;10.50;4.22;;;;;;;24.22;38.14;98597.81;4481689;32;20476;-83
2022/05/17 01:30:26;;;;;;;11.73;4.47;;;;;;;24.24;37.97;98593.94;4468256;31;20136;-83
2022/05/17 01:32:52;;;;;;;11.12;4.60;;;;;;;24.26;37.79;98591.03;4474937;32;20097;-82
2022/05/17 01:35:18;;;;;;;12.70;4.00;;;;;;;24.27;37.57;98593.56;4484597;31;20160;-82
2022/05/17 01:37:45;;;;;;;13.03;4.50;;;;;;;24.32;37.52;98588.50;4477329;31;20084;-84
2022/05/17 01:40:10;;;;;;;11.52;3.85;;;;;;;24.31;37.58;98596.75;4493795;31;20097;-85
2022/05/17 01:42:36;;;;;;;10.88;4.60;;;;;;;24.34;37.44;98596.41;4482752;31;20112;-85
2022/05/17 01:45:03;;;;;;;10.88;4.10;;;;;;;24.36;37.31;98591.69;4474893;31;20120;-84
2022/05/17 01:47:29;;;;;;;10.00;4.23;;;;;;;24.37;37.32;98592.50;4496469;31;20104;-85
2022/05/17 01:49:54;;;;;;;10.88;4.15;;;;;;;24.34;38.04;98591.84;4486121;31;20100;-83
2022/05/17 01:52:20;;;;;;;10.77;4.32;;;;;;;24.39;38.15;98596.69;4495095;31;20104;-85
2022/05/17 01:54:45;;;;;;;10.95;4.22;;;;;;;24.30;38.50;98587.84;4478516;31;20093;-85
2022/05/17 01:57:10;;;;;;;11.70;4.37;;;;;;;24.21;38.98;98590.75;4486706;31;20127;-86
2022/05/17 01:59:36;;;;;;;11.73;4.45;;;;;;;24.11;39.01;98590.97;4489821;31;20095;-86
2022/05/17 02:02:02;;;;;;;9.38;4.32;;;;;;;24.15;39.03;98592.28;4494326;31;20123;-85
2022/05/17 02:04:27;;;;;;;11.40;4.28;;;;;;;24.22;38.91;98592.41;4481199;31;20108;-85
2022/05/17 02:06:53;;;;;;;9.90;4.25;;;;;;;24.24;38.98;98593.09;4488937;31;20381;-85
2022/05/17 02:09:18;;;;;;;10.27;4.00;;;;;;;24.31;38.68;98596.75;4485748;31;20144;-86
2022/05/17 02:11:43;;;;;;;10.93;4.20;;;;;;;24.28;38.77;98594.41;4490481;31;20269;-85
2022/05/17 02:14:09;;;;;;;9.68;4.12;;;;;;;24.26;38.88;98593.75;4492464;31;20411;-85
2022/05/17 02:16:38;;;;;;;10.27;4.10;;;;;;;24.31;38.97;98583.28;4488798;31;20134;-85
2022/05/17 02:19:04;;;;;;;10.13;4.20;;;;;;;24.28;39.01;98584.50;4498302;31;20088;-85
2022/05/17 02:21:30;;;;;;;10.40;4.00;;;;;;;24.28;38.74;98587.19;4485355;31;20123;-84
2022/05/17 02:23:55;;;;;;;9.93;3.70;;;;;;;24.28;38.10;98586.31;4491390;31;20096;-84
2022/05/17 02:26:20;;;;;;;9.73;3.97;;;;;;;24.26;37.33;98575.75;4477575;32;20404;-84
2022/05/17 02:28:46;;;;;;;9.70;3.90;;;;;;;24.32;37.30;98576.91;4497178;31;20095;-84
2022/05/17 02:31:13;;;;;;;8.45;4.15;;;;;;;24.33;36.88;98576.69;4474426;31;20449;-83
2022/05/17 02:33:38;;;;;;;10.77;3.80;;;;;;;24.21;39.17;98580.81;4498776;31;20113;-83
2022/05/17 02:36:04;;;;;;;11.90;3.90;;;;;;;24.25;39.36;98574.06;4480062;31;20481;-86
2022/05/17 02:38:29;;;;;;;10.90;4.35;;;;;;;24.30;39.42;98587.00;4503484;31;20079;-84
2022/05/17 02:40:55;;;;;;;9.05;3.83;;;;;;;24.17;40.09;98582.19;4503478;31;20096;-82
2022/05/17 02:43:20;;;;;;;9.80;3.80;;;;;;;24.16;40.12;98582.34;4503507;31;20087;-82
2022/05/17 02:45:45;;;;;;;10.02;3.72;;;;;;;24.04;39.48;98581.91;4489430;31;20139;-84
2022/05/17 02:48:11;;;;;;;10.88;4.18;;;;;;;24.09;39.00;98577.69;4491784;31;20084;-81
2022/05/17 02:50:36;;;;;;;8.18;3.58;;;;;;;24.12;38.66;98580.00;4472221;32;20497;-80
2022/05/17 02:53:02;;;;;;;10.57;3.62;;;;;;;24.17;38.29;98579.50;4485493;31;20136;-85
2022/05/17 02:55:28;;;;;;;10.02;3.80;;;;;;;24.19;38.08;98574.78;4472314;32;20103;-85
2022/05/17 02:57:53;;;;;;;9.60;3.53;;;;;;;24.20;38.42;98583.69;4487826;32;20455;-86
2022/05/17 03:00:19;;;;;;;12.82;4.15;;;;;;;24.20;38.50;98579.12;4472777;32;20100;-85
2022/05/17 03:02:44;;;;;;;10.00;3.37;;;;;;;24.22;38.63;98578.97;4473357;32;20130;-85
2022/05/17 03:05:12;;;;;;;9.27;3.55;;;;;;;24.22;38.86;98584.34;4487273;32;20106;-85
2022/05/17 03:07:38;;;;;;;10.20;3.58;;;;;;;24.22;38.69;98584.34;4487952;32;20107;-85
2022/05/17 03:10:04;;;;;;;8.57;3.70;;;;;;;24.27;38.51;98584.66;4487282;32;20081;-86
2022/05/17 03:12:30;;;;;;;10.27;3.90;;;;;;;24.26;38.57;98588.34;4487566;32;20466;-85
2022/05/17 03:14:55;;;;;;;8.30;3.50;;;;;;;24.25;38.68;98590.22;4486983;32;20096;-85
2022/05/17 03:17:21;;;;;;;9.73;4.07;;;;;;;24.33;38.86;98598.25;4487523;32;20190;-85
2022/05/17 03:19:46;;;;;;;9.65;3.92;;;;;;;23.65;41.50;98598.84;4487104;32;20100;-85
2022/05/17 03:22:12;;;;;;;10.38;4.07;;;;;;;23.57;41.74;98596.19;4487578;32;20341;-84
2022/05/17 03:24:38;;;;;;;9.23;4.00;;;;;;;23.63;41.70;98590.94;4487310;32;20101;-84
2022/05/17 03:27:04;;;;;;;9.95;3.80;;;;;;;23.69;41.67;98595.62;4487185;32;20092;-85
2022/05/17 03:29:30;;;;;;;10.77;4.20;;;;;;;23.65;41.24;98598.84;4487364;32;20089;-86
2022/05/17 03:31:55;;;;;;;8.93;4.32;;;;;;;23.62;41.13;98599.16;4486817;32;20115;-86
2022/05/17 03:34:21;;;;;;;10.85;4.25;;;;;;;23.23;41.88;98595.38;4487614;32;20114;-87
2022/05/17 03:36:47;;;;;;;11.68;4.75;;;;;;;23.34;41.54;98604.94;4472717;32;20103;-86
2022/05/17 03:39:12;;;;;;;11.38;4.20;;;;;;;23.25;41.87;98597.87;4487262;32;20466;-85
2022/05/17 03:41:38;;;;;;;10.98;5.03;;;;;;;23.05;42.50;98606.31;4486530;32;20110;-85
2022/05/17 03:44:03;;;;;;;12.00;4.95;;;;;;;22.74;43.75;98606.09;4487403;32;20103;-86
2022/05/17 03:46:28;;;;;;;11.75;4.62;;;;;;;22.86;43.98;98606.59;4486782;32;20084;-86
2022/05/17 03:48:54;;;;;;;10.27;4.18;;;;;;;23.16;43.56;98605.97;4487367;32;20146;-87
2022/05/17 03:51:20;;;;;;;10.85;4.65;;;;;;;23.16;43.86;98605.97;4486597;32;20112;-84
2022/05/17 03:53:47;;;;;;;11.15;4.37;;;;;;;23.22;43.84;98608.97;4473063;32;20104;-85
2022/05/17 03:56:13;;;;;;;13.38;4.78;;;;;;;23.09;43.26;98604.94;4472640;32;20092;-88
2022/05/17 03:58:39;;;;;;;11.43;4.65;;;;;;;23.24;42.95;98606.97;4472903;32;20146;-88
2022/05/17 04:01:05;;;;;;;11.50;4.87;;;;;;;23.20;42.79;98598.41;4487104;32;20127;-87
2022/05/17 04:03:31;;;;;;;10.30;4.10;;;;;;;23.32;42.72;98597.03;4486951;32;20115;-87
2022/05/17 04:05:56;;;;;;;9.27;4.30;;;;;;;23.44;42.65;98599.37;4487068;32;20118;-87
2022/05/17 04:08:22;;;;;;;12.30;4.53;;;;;;;23.42;42.50;98596.03;4486873;32;20439;-87
2022/05/17 04:10:47;;;;;;;11.25;4.12;;;;;;;23.38;41.80;98597.38;4487181;32;20110;-87
2022/05/17 04:13:13;;;;;;;10.50;4.55;;;;;;;23.51;41.85;98595.00;4486417;32;20072;-86
2022/05/17 04:15:39;;;;;;;13.52;4.43;;;;;;;23.43;41.82;98601.25;4487196;32;20077;-87
2022/05/17 04:18:04;;;;;;;12.05;4.12;;;;;;;23.36;42.18;98600.22;4486489;32;20122;-88
2022/05/17 04:20:31;;;;;;;10.45;3.90;;;;;;;23.39;42.17;98599.03;4472862;32;20127;-87
2022/05/17 04:22:57;;;;;;;12.10;4.72;;;;;;;23.48;42.12;98604.22;4486738;32;20100;-88
2022/05/17 04:25:24;;;;;;;12.20;4.50;;;;;;;23.23;42.32;98605.28;4472867;32;20149;-89
2022/05/17 04:27:50;;;;;;;9.85;4.03;;;;;;;23.52;41.95;98596.66;4486673;32;20459;-87
2022/05/17 04:30:17;;;;;;;11.18;4.15;;;;;;;23.60;41.73;98598.50;4487091;32;20165;-88
2022/05/17 04:32:43;;;;;;;9.60;3.97;;;;;;;23.54;41.75;98605.41;4486445;32;20179;-89
2022/05/17 04:35:09;;;;;;;11.15;4.60;;;;;;;23.73;40.97;98598.81;4486994;32;20229;-88
2022/05/17 04:37:36;;;;;;;11.68;3.90;;;;;;;23.73;40.84;98599.63;4486761;32;20447;-88
2022/05/17 04:40:02;;;;;;;12.83;4.40;;;;;;;23.46;41.15;98600.88;4486934;32;20083;-89
2022/05/17 04:42:30;;;;;;;10.00;3.75;;;;;;;23.49;40.69;98597.03;4486882;32;20122;-90
2022/05/17 04:44:55;;;;;;;11.75;4.15;;;;;;;23.65;40.06;98596.16;4486612;32;20420;-85
2022/05/17 04:47:21;;;;;;;10.90;3.92;;;;;;;23.23;40.65;98595.38;4486915;32;20761;-85
2022/05/17 04:49:47;;;;;;;10.70;4.30;;;;;;;23.72;39.94;98599.81;4486383;32;20104;-83
2022/05/17 04:52:13;;;;;;;10.73;4.10;;;;;;;23.72;39.98;98602.50;4486984;32;20089;-84
2022/05/17 04:54:38;;;;;;;11.07;4.20;;;;;;;23.89;40.00;98595.25;4485299;32;20124;-85
2022/05/17 04:57:04;;;;;;;14.68;4.25;;;;;;;23.77;40.12;98604.69;4487079;32;20151;-85
2022/05/17 04:59:30;;;;;;;11.73;4.47;;;;;;;23.95;40.23;98602.62;4487035;32;20088;-83
2022/05/17 05:01:55;;;;;;;10.73;4.18;;;;;;;24.02;40.67;98603.59;4487081;32;20080;-81
2022/05/17 05:04:20;;;;;;;10.35;4.30;;;;;;;23.96;39.86;98600.78;4487007;32;20118;-80
2022/05/17 05:06:49;;;;;;;10.85;4.57;;;;;;;24.05;40.50;98600.59;4487047;32;20092;-83
2022/05/17 05:09:14;;;;;;;11.02;4.25;;;;;;;24.40;40.17;98593.00;4472721;32;20167;-83
2022/05/17 05:11:40;;;;;;;10.70;4.22;;;;;;;24.42;40.11;98596.34;4486838;32;20080;-83
2022/05/17 05:14:05;;;;;;;10.48;4.72;;;;;;;24.58;39.87;98594.62;4486703;32;20148;-83
2022/05/17 05:16:31;;;;;;;11.35;4.15;;;;;;;24.26;40.15;98596.44;4459523;32;20092;-84
2022/05/17 05:18:56;;;;;;;13.77;4.37;;;;;;;24.11;40.26;98591.81;4472548;32;20134;-83
2022/05/17 05:21:22;;;;;;;11.18;4.50;;;;;;;24.33;40.03;98592.03;4486717;32;20140;-82
2022/05/17 05:23:47;;;;;;;12.20;4.57;;;;;;;24.06;40.40;98596.88;4486564;32;20127;-83
2022/05/17 05:26:14;;;;;;;10.48;4.55;;;;;;;24.43;39.95;98589.94;4486692;32;20448;-83
2022/05/17 05:28:41;;;;;;;11.70;4.25;;;;;;;24.55;39.63;98594.97;4472906;32;20112;-83
2022/05/17 05:31:07;;;;;;;10.82;4.65;;;;;;;24.56;40.00;98597.47;4486557;32;20166;-82
2022/05/17 05:33:34;;;;;;;10.15;3.75;;;;;;;24.53;40.00;98603.22;4472357;32;20463;-83
2022/05/17 05:36:00;;;;;;;10.30;4.53;;;;;;;24.66;39.85;98603.47;4472606;32;20714;-83
2022/05/17 05:38:25;;;;;;;11.55;4.22;;;;;;;24.88;39.42;98606.37;4486791;32;20118;-83
2022/05/17 05:40:51;;;;;;;10.73;4.30;;;;;;;24.84;40.07;98605.87;4487005;32;20127;-83
2022/05/17 05:43:16;;;;;;;11.82;4.70;;;;;;;24.70;40.16;98609.34;4486803;32;20084;-84
2022/05/17 05:45:42;;;;;;;13.00;4.50;;;;;;;24.75;39.77;98617.72;4486714;32;20099;-84
2022/05/17 05:48:07;;;;;;;10.75;4.47;;;;;;;25.01;39.58;98613.84;4486659;32;20124;-84
2022/05/17 05:50:33;;;;;;;10.63;4.53;;;;;;;25.04;39.60;98605.41;4472412;32;20110;-84
2022/05/17 05:53:10;;;;;;;12.75;4.12;;;;;;;25.09;39.48;98608.38;4472252;32;20451;-87
2022/05/17 05:55:37;;;;;;;13.93;4.50;;;;;;;24.84;39.76;98605.03;4472608;32;20108;-83
2022/05/17 05:58:03;;;;;;;;;;;;;;;24.79;40.06;98596.66;4486772;32;20096;-86
2022/05/17 06:00:29;;;;;;;14.98;4.95;;;;;;;25.04;40.39;98600.00;4486457;32;19968;-85
2022/05/17 06:02:55;;;;;;;11.32;4.50;;;;;;;24.73;41.04;98599.03;4472206;32;20068;-87
2022/05/17 06:05:22;;;;;;;10.93;4.45;;;;;;;24.79;40.72;98599.34;4473349;32;20129;-86
2022/05/17 06:07:48;;;;;;;10.07;4.55;;;;;;;24.79;40.58;98602.06;4474292;32;20164;-87
2022/05/17 06:10:14;;;;;;;11.02;4.70;;;;;;;24.96;40.30;98597.38;4474437;32;20077;-86
2022/05/17 06:12:39;;;;;;;10.25;4.25;;;;;;;25.03;40.09;98604.53;4488405;32;20332;-87
2022/05/17 06:15:06;;;;;;;10.02;4.80;;;;;;;24.82;40.72;98605.22;4488427;32;20119;-87
2022/05/17 06:17:31;;;;;;;12.60;4.90;;;;;;;24.92;41.04;98603.12;4488527;32;20092;-86
2022/05/17 06:19:57;;;;;;;11.60;4.95;;;;;;;24.76;41.56;98605.91;4474205;32;20109;-86
2022/05/17 06:22:24;;;;;;;12.13;4.68;;;;;;;24.96;40.68;98598.22;4474253;32;20110;-87
2022/05/17 06:24:49;;;;;;;12.05;4.95;;;;;;;25.25;40.34;98619.06;4488499;32;20251;-87
2022/05/17 06:27:15;;;;;;;11.18;5.30;;;;;;;25.41;39.99;98609.13;4488058;32;20092;-90
2022/05/17 06:29:40;;;;;;;12.10;5.35;;;;;;;25.01;40.99;98619.22;4488065;32;20111;-87
2022/05/17 06:32:12;;;;;;;10.07;4.60;;;;;;;25.15;40.93;98621.16;4487769;32;20076;-83
2022/05/17 06:34:43;;;;;;;9.13;4.22;;;;;;;25.49;40.49;98620.66;4473730;32;20139;-82
2022/05/17 06:37:09;;;;;;;11.38;4.62;;;;;;;25.29;40.65;98624.94;4488045;32;20115;-82
2022/05/17 06:39:35;;;;;;;10.77;4.55;;;;;;;25.47;40.42;98614.63;4473723;32;20076;-82
2022/05/17 06:42:01;;;;;;;9.77;4.43;;;;;;;25.63;40.88;98618.19;4488051;32;20073;-82
2022/05/17 06:44:27;;;;;;;11.57;5.22;;;;;;;25.34;41.35;98622.50;4488017;32;20105;-82
2022/05/17 06:46:54;;;;;;;11.05;4.68;;;;;;;25.17;41.28;98624.50;4473882;32;20135;-82
2022/05/17 06:49:20;;;;;;;9.88;4.43;;;;;;;25.75;40.62;98618.56;4473883;32;20424;-82
2022/05/17 06:51:46;;;;;;;11.07;4.90;;;;;;;25.81;40.24;98615.16;4487748;32;20073;-81
2022/05/17 06:54:11;;;;;;;11.07;4.70;;;;;;;25.39;41.40;98624.66;4473573;32;20111;-82
2022/05/17 06:56:36;;;;;;;11.85;4.80;;;;;;;25.33;41.87;98628.94;4487874;32;20085;-81
2022/05/17 06:59:03;;;;;;;11.10;4.55;;;;;;;25.28;41.67;98624.09;4487822;32;20351;-82
2022/05/17 07:01:28;;;;;;;9.37;4.53;;;;;;;24.80;42.47;98631.50;4487904;32;20084;-81
2022/05/17 07:03:54;;;;;;;11.30;4.68;;;;;;;25.10;42.56;98628.94;4487746;32;20136;-82
2022/05/17 07:06:20;;;;;;;12.95;5.15;;;;;;;25.10;42.80;98627.06;4487757;32;20080;-82
2022/05/17 07:08:46;;;;;;;11.60;4.72;;;;;;;25.05;43.17;98629.47;4473726;32;20147;-82
2022/05/17 07:13:55;;;;;;;10.95;4.57;;;;;;;25.30;42.78;98629.28;4487824;32;20131;-82
2022/05/17 07:16:22;;;;;;;10.30;4.62;;;;;;;25.06;42.94;98636.53;4487143;32;20084;-81
2022/05/17 07:18:47;;;;;;;10.15;4.97;;;;;;;24.75;43.58;98636.59;4487830;32;20180;-82
2022/05/17 07:21:13;;;;;;;12.40;4.70;;;;;;;24.68;43.99;98628.37;4487584;32;20073;-81
2022/05/17 07:23:40;;;;;;;11.80;5.03;;;;;;;24.38;44.77;98637.25;4487637;32;20144;-82
2022/05/17 07:26:06;;;;;;;11.25;5.20;;;;;;;24.08;45.71;98635.19;4487963;32;20520;-82
2022/05/17 07:28:32;;;;;;;12.50;5.10;;;;;;;24.62;44.42;98641.72;4487834;32;20155;-82
2022/05/17 07:30:59;;;;;;;10.40;4.65;;;;;;;24.36;45.09;98634.75;4487905;32;20084;-81
2022/05/17 07:33:24;;;;;;;10.63;4.90;;;;;;;24.56;44.41;98640.56;4487770;32;20474;-81
2022/05/17 07:35:50;;;;;;;12.43;4.90;;;;;;;24.44;45.12;98644.66;4473612;32;20219;-81
2022/05/17 07:38:16;;;;;;;11.95;5.03;;;;;;;24.36;45.57;98652.75;4487900;32;20386;-82
2022/05/17 07:40:42;;;;;;;11.32;5.15;;;;;;;24.15;46.28;98651.50;4487757;32;20416;-82
2022/05/17 07:43:08;;;;;;;13.88;5.20;;;;;;;23.97;47.00;98645.50;4487901;32;20101;-82
2022/05/17 07:45:34;;;;;;;14.00;5.57;;;;;;;24.14;46.61;98645.28;4487922;32;20080;-82
2022/05/17 07:48:02;;;;;;;12.73;5.72;;;;;;;24.29;46.81;98637.31;4487733;32;20480;-82
2022/05/17 07:50:27;;;;;;;11.77;5.50;;;;;;;23.84;49.16;98633.44;4487762;32;20080;-81
2022/05/17 07:52:53;;;;;;;12.00;6.30;;;;;;;24.09;49.22;98636.87;4487488;32;20080;-82
2022/05/17 07:55:19;;;;;;;13.07;6.10;;;;;;;23.91;49.80;98642.50;4473465;32;20119;-81
2022/05/17 07:57:44;;;;;;;19.00;6.65;;;;;;;23.58;51.67;98646.25;4487676;32;20127;-82
2022/05/17 08:00:10;;;;;;;17.10;7.12;;;;;;;22.95;55.70;98643.22;4487418;32;20085;-82
2022/05/17 08:02:36;;;;;;;17.58;7.57;;;;;;;23.12;56.32;98646.75;4460081;32;20417;-82
2022/05/17 08:05:02;;;;;;;16.08;7.35;;;;;;;22.67;59.01;98653.41;4473152;32;20097;-81
2022/05/17 08:07:27;;;;;;;19.55;7.53;;;;;;;22.60;59.77;98660.41;4487446;32;20081;-81
2022/05/17 08:09:53;;;;;;;14.98;7.65;;;;;;;22.49;59.83;98657.03;4487438;32;20091;-81
2022/05/17 08:12:19;;;;;;;13.68;7.43;;;;;;;22.68;59.58;98655.09;4472920;32;20104;-81
2022/05/17 08:14:45;;;;;;;15.77;7.68;;;;;;;22.51;59.79;98656.88;4473133;32;20092;-82
2022/05/17 08:17:10;;;;;;;15.23;8.00;;;;;;;22.54;59.92;98665.44;4472968;32;20106;-82
2022/05/17 08:19:37;;;;;;;14.32;7.65;;;;;;;22.84;59.22;98660.47;4487259;32;20076;-82
2022/05/17 08:22:04;;;;;;;15.73;7.60;;;;;;;22.77;57.85;98656.75;4487257;32;20115;-81
2022/05/17 08:27:31;;;;;;;13.93;7.70;;;;;;;22.70;57.58;98663.81;4472999;32;20138;-81
2022/05/17 08:27:39;;;;;;;14.65;7.53;;;;;;;22.41;58.91;98669.56;4487258;32;20088;-81
2022/05/17 08:30:13;;;;;;;16.92;8.02;;;;;;;22.25;59.69;98678.41;4486935;32;20473;-81
2022/05/17 08:35:44;;;;;;;13.65;8.07;;;;;;;22.72;58.69;98681.44;4479747;32;20489;-81
2022/05/17 08:38:14;;;;;;;15.32;8.32;;;;;;;22.74;57.68;98678.59;4472892;32;20076;-82
2022/05/17 08:41:07;;;;;;;15.48;8.60;;;;;;;22.27;59.04;98679.09;4487280;32;20136;-81
2022/05/17 08:43:52;;;;;;;16.45;8.57;;;;;;;22.37;58.64;98686.03;4487232;32;20380;-81
2022/05/17 08:46:29;;;;;;;14.60;8.10;;;;;;;22.51;58.39;98689.09;4487147;32;20115;-81
2022/05/17 08:49:10;;;;;;;15.40;8.33;;;;;;;22.59;58.15;98689.13;4487181;32;20085;-82
2022/05/17 08:51:51;;;;;;;15.68;8.32;;;;;;;22.66;58.39;98695.53;4472852;32;20172;-82
2022/05/17 08:54:19;;;;;;;15.05;8.32;;;;;;;22.82;57.35;98693.88;4487181;32;20095;-82
2022/05/17 08:56:49;;;;;;;14.85;7.82;;;;;;;22.63;58.20;98698.53;4487174;32;20115;-81
2022/05/17 08:59:19;;;;;;;13.43;8.02;;;;;;;22.74;58.02;98692.03;4472902;32;20103;-82
2022/05/17 09:01:55;;;;;;;15.38;8.82;;;;;;;23.05;57.49;98699.50;4472710;32;20471;-82
2022/05/17 09:04:50;;;;;;;18.25;7.97;;;;;;;23.27;57.66;98690.78;4473048;32;20201;-81
2022/05/17 09:07:28;;;;;;;16.08;8.13;;;;;;;23.47;55.80;98695.81;4472985;32;20507;-81
2022/05/17 09:10:26;;;;;;;14.95;7.87;;;;;;;23.51;56.25;98699.88;4473103;32;20072;-81
2022/05/17 09:12:52;;;;;;;15.18;7.95;;;;;;;23.60;55.91;98703.38;4473289;32;20099;-82
2022/05/17 09:15:18;;;;;;;13.88;7.40;;;;;;;23.45;56.66;98697.81;4472659;32;20108;-82
2022/05/17 09:17:44;;;;;;;14.10;7.55;;;;;;;23.41;56.29;98699.19;4486842;32;20475;-81
2022/05/17 09:20:15;;;;;;;13.70;6.82;;;;;;;23.48;55.81;98700.19;4472659;32;20100;-81
2022/05/17 09:22:40;;;;;;;14.23;7.25;;;;;;;23.25;56.22;98700.84;4459581;32;20080;-81
2022/05/17 09:25:16;;;;;;;15.40;7.20;;;;;;;23.15;56.36;98697.50;4486657;32;20380;-81
2022/05/17 09:27:46;;;;;;;14.07;7.47;;;;;;;22.90;57.17;98700.09;4486749;32;20172;-82
2022/05/17 09:30:24;;;;;;;12.23;7.00;;;;;;;23.05;56.30;98699.50;4472546;32;20413;-82
2022/05/17 09:33:01;;;;;;;13.35;7.07;;;;;;;23.33;56.14;98700.00;4486346;32;20129;-82
2022/05/17 09:35:27;;;;;;;13.73;7.72;;;;;;;23.55;55.42;98695.81;4472494;32;20100;-81
2022/05/17 09:37:58;;;;;;;13.98;7.28;;;;;;;23.19;56.57;98696.16;4459230;32;20096;-81
2022/05/17 09:40:30;;;;;;;14.15;7.53;;;;;;;22.62;59.42;98698.69;4486160;32;20076;-81
2022/05/17 09:43:07;;;;;;;13.32;7.47;;;;;;;22.96;58.30;98701.28;4472443;32;20077;-81
2022/05/17 09:46:01;;;;;;;14.07;7.97;;;;;;;22.89;58.19;98700.25;4472519;32;20097;-82
2022/05/17 09:54:31;;;;;;;15.25;7.72;;;;;;;22.96;58.22;98702.12;4486497;32;20465;-81
2022/05/17 09:57:12;;;;;;;14.80;7.43;;;;;;;22.91;57.37;98693.75;4472400;32;20127;-81
2022/05/17 09:59:37;;;;;;;13.80;7.72;;;;;;;22.66;58.88;98698.22;4486467;32;20092;-82
2022/05/17 10:02:03;;;;;;;16.05;7.53;;;;;;;22.96;57.50;98694.06;4485970;32;20068;-81
2022/05/17 10:04:29;;;;;;;13.50;7.40;;;;;;;22.89;57.36;98693.06;4486200;32;20068;-81
2022/05/17 10:06:56;;;;;;;17.65;8.07;;;;;;;23.04;57.83;98684.38;4486101;32;20081;-81
2022/05/17 10:09:28;;;;;;;12.48;7.43;;;;;;;23.12;57.36;98673.63;4486218;32;20193;-81
2022/05/17 10:12:19;;;;;;;13.82;7.87;;;;;;;23.59;55.92;98675.66;4486081;32;20444;-81
2022/05/17 10:14:52;;;;;;;13.95;7.55;;;;;;;23.62;56.30;98675.28;4472268;32;20111;-81
2022/05/17 10:17:30;;;;;;;14.80;7.53;;;;;;;23.65;56.30;98682.22;4472279;32;20104;-81
2022/05/17 10:19:59;;;;;;;;;;;;;;;23.88;55.75;98683.19;4472246;32;20109;-82
2022/05/17 10:22:51;;;;;;;14.90;7.12;;;;;;;24.29;55.56;98668.78;4471891;32;19988;-82
2022/05/17 10:25:24;;;;;;;12.77;7.40;;;;;;;24.64;53.92;98667.44;4458928;32;20081;-82
2022/05/17 10:27:55;;;;;;;14.50;7.82;;;;;;;24.90;54.24;98671.69;4471686;32;20112;-82
2022/05/17 10:30:26;;;;;;;14.70;6.90;;;;;;;25.16;53.98;98668.63;4486060;32;20106;-82
2022/05/17 10:33:00;;;;;;;13.52;7.30;;;;;;;25.31;51.90;98666.84;4471533;32;20114;-82
2022/05/17 10:35:38;;;;;;;12.88;7.10;;;;;;;25.46;51.23;98674.16;4472022;32;20107;-82
2022/05/17 10:38:23;;;;;;;13.85;7.50;;;;;;;25.31;50.71;98666.84;4471720;32;20383;-82
2022/05/17 10:40:51;;;;;;;12.35;6.87;;;;;;;24.79;51.62;98672.94;4471731;32;20095;-82
2022/05/17 10:43:29;;;;;;;14.90;7.72;;;;;;;24.87;51.49;98674.75;4471834;32;20097;-81
2022/05/17 10:46:08;;;;;;;12.75;7.30;;;;;;;25.17;50.51;98662.22;4471847;32;20120;-82
2022/05/17 10:48:38;;;;;;;13.75;7.15;;;;;;;25.16;50.65;98667.81;4485941;32;20135;-82
2022/05/17 10:51:25;;;;;;;12.75;7.07;;;;;;;25.34;50.94;98670.22;4485665;32;20088;-82
2022/05/17 10:53:59;;;;;;;13.13;7.20;;;;;;;25.21;50.17;98662.72;4487924;32;20164;-82
2022/05/17 10:56:45;;;;;;;12.52;6.28;;;;;;;25.37;49.99;98670.69;4487946;32;20219;-82
2022/05/17 10:59:37;;;;;;;13.20;6.82;;;;;;;25.42;48.16;98667.44;4488121;32;20140;-82
2022/05/17 11:02:24;;;;;;;13.25;6.50;;;;;;;25.51;48.48;98669.03;4473790;32;20109;-82
2022/05/17 11:05:15;;;;;;;13.85;7.10;;;;;;;25.59;48.72;98663.56;4487961;32;20124;-82
2022/05/17 11:07:53;;;;;;;12.68;6.35;;;;;;;25.59;48.75;98668.13;4487766;32;20114;-82
2022/05/17 11:10:28;;;;;;;12.82;6.57;;;;;;;25.67;49.06;98668.91;4473672;32;20176;-82
2022/05/17 11:13:00;;;;;;;10.75;5.97;;;;;;;25.58;46.73;98670.00;4473517;32;20092;-81
2022/05/17 11:15:32;;;;;;;12.63;6.25;;;;;;;25.70;46.47;98667.69;4473519;32;20126;-82
2022/05/17 11:18:04;;;;;;;12.15;6.00;;;;;;;25.62;47.06;98662.38;4473851;32;20144;-82
2022/05/17 11:20:34;;;;;;;14.25;6.78;;;;;;;25.40;48.10;98664.94;4473915;32;20453;-82
2022/05/17 11:23:24;;;;;;;12.45;6.03;;;;;;;25.59;47.18;98668.13;4487631;32;20439;-82
2022/05/17 11:26:17;;;;;;;12.55;6.28;;;;;;;25.81;46.85;98664.53;4487754;32;20151;-82
2022/05/17 11:28:52;;;;;;;10.88;5.97;;;;;;;25.81;46.74;98661.84;4476607;32;20076;-82
2022/05/17 11:31:29;;;;;;;10.85;5.30;;;;;;;26.10;46.45;98649.41;4487718;32;20174;-82
2022/05/17 11:34:23;;;;;;;11.07;6.07;;;;;;;25.76;45.61;98652.63;4487613;32;20143;-82
2022/05/17 11:36:50;;;;;;;10.52;5.85;;;;;;;26.24;45.32;98637.75;4487626;32;20111;-82
2022/05/17 11:39:48;;;;;;;11.70;5.72;;;;;;;26.23;44.63;98637.94;4487621;32;20428;-82
2022/05/17 11:42:29;;;;;;;13.10;6.15;;;;;;;26.25;43.54;98635.88;4446225;32;20131;-82
2022/05/17 11:44:56;;;;;;;11.90;6.07;;;;;;;26.15;44.49;98636.19;4487616;32;20186;-82
2022/05/17 11:47:47;;;;;;;12.53;5.97;;;;;;;26.23;44.69;98635.22;4487778;32;20085;-82
2022/05/17 11:50:15;;;;;;;11.60;6.05;;;;;;;26.29;44.82;98635.34;4473520;32;20193;-82